createdAt,value
2019-04-28T00:02:25.942Z,98427.20
2019-04-28T00:04:57.650Z,98425.98
2019-04-28T00:07:29.236Z,98418.19
2019-04-28T00:10:01.929Z,98421.31
2019-04-28T00:12:33.578Z,98418.05
2019-04-28T00:15:07.747Z,98418.70
2019-04-28T00:17:39.412Z,98421.39
2019-04-28T00:20:14.417Z,98427.42
2019-04-28T00:22:54.589Z,98421.13
2019-04-28T00:25:31.129Z,98427.50
2019-04-28T00:28:02.831Z,98430.28
2019-04-28T00:30:34.378Z,98434.09
2019-04-28T00:33:05.955Z,98436.99
2019-04-28T00:35:37.575Z,98440.59
2019-04-28T00:38:09.182Z,98438.81
2019-04-28T00:40:42.555Z,98440.14
2019-04-28T00:43:14.138Z,98442.55
2019-04-28T00:45:45.695Z,98444.65
2019-04-28T00:48:17.287Z,98439.91
2019-04-28T00:50:48.882Z,98435.20
2019-04-28T00:53:20.713Z,98446.82
2019-04-28T00:55:54.022Z,98433.27
2019-04-28T00:58:25.687Z,98439.33
2019-04-28T01:01:01.400Z,98431.34
2019-04-28T01:03:34.113Z,98434.09
2019-04-28T01:06:05.678Z,98429.55
2019-04-28T01:08:37.245Z,98443.83
2019-04-28T01:11:08.852Z,98431.98
2019-04-28T01:13:41.981Z,98433.20
2019-04-28T01:16:20.276Z,98424.47
2019-04-28T01:18:56.511Z,98428.52
2019-04-28T01:21:46.993Z,98426.22
2019-04-28T01:24:20.090Z,98423.61
2019-04-28T01:26:53.359Z,98426.11
2019-04-28T01:29:24.956Z,98432.63
2019-04-28T01:32:15.370Z,98435.45
2019-04-28T01:34:46.976Z,98430.92
2019-04-28T01:37:19.600Z,98438.11
2019-04-28T01:39:51.297Z,98436.18
2019-04-28T01:42:22.874Z,98436.32
2019-04-28T01:44:54.464Z,98425.37
2019-04-28T01:47:26.024Z,98428.44
2019-04-28T01:49:57.716Z,98425.92
2019-04-28T01:52:30.314Z,98429.73
2019-04-28T01:55:02.049Z,98426.89
2019-04-28T01:57:33.612Z,98426.72
2019-04-28T02:00:21.414Z,98427.16
2019-04-28T02:02:43.212Z,98424.86
2019-04-28T02:05:16.607Z,98431.28
2019-04-28T02:07:48.176Z,98433.41
2019-04-28T02:10:21.717Z,98431.28
2019-04-28T02:12:53.066Z,98429.12
2019-04-28T02:15:24.659Z,98436.75
2019-04-28T02:17:56.242Z,98434.06
2019-04-28T02:20:27.805Z,98433.02
2019-04-28T02:23:04.221Z,98433.96
2019-04-28T02:25:35.760Z,98429.09
2019-04-28T02:28:07.351Z,98425.84
2019-04-28T02:30:47.797Z,98430.70
2019-04-28T02:33:12.184Z,98428.38
2019-04-28T02:35:43.752Z,98424.22
2019-04-28T02:38:15.328Z,98432.77
2019-04-28T02:40:46.866Z,98425.61
2019-04-28T02:43:20.912Z,98429.12
2019-04-28T02:45:53.438Z,98431.72
2019-04-28T02:48:27.181Z,98428.02
2019-04-28T02:51:20.696Z,98423.81
2019-04-28T02:53:51.504Z,98423.42
2019-04-28T02:56:24.138Z,98418.28
2019-04-28T02:58:55.730Z,98418.38
2019-04-28T03:01:27.291Z,98422.50
2019-04-28T03:04:00.344Z,98424.55
2019-04-28T03:06:32.104Z,98421.03
2019-04-28T03:09:03.678Z,98417.22
2019-04-28T03:11:35.611Z,98416.47
2019-04-28T03:14:07.181Z,98411.88
2019-04-28T03:16:41.017Z,98405.11
2019-04-28T03:19:12.149Z,98398.14
2019-04-28T03:21:43.707Z,98401.74
2019-04-28T03:24:15.453Z,98395.97
2019-04-28T03:27:04.849Z,98397.61
2019-04-28T03:29:43.841Z,98395.48
2019-04-28T03:32:37.109Z,98401.23
2019-04-28T03:34:55.994Z,98400.02
2019-04-28T03:37:27.554Z,98405.38
2019-04-28T03:40:00.527Z,98405.55
2019-04-28T03:42:34.111Z,98403.12
2019-04-28T03:45:11.332Z,98401.27
2019-04-28T03:47:42.873Z,98404.69
2019-04-28T03:50:14.447Z,98402.17
2019-04-28T03:52:46.064Z,98395.92
2019-04-28T03:55:17.585Z,98391.20
2019-04-28T03:57:51.042Z,98394.44
2019-04-28T04:00:23.535Z,98391.06
2019-04-28T04:02:55.104Z,98392.97
2019-04-28T04:05:26.733Z,98390.61
2019-04-28T04:08:00.593Z,98392.63
2019-04-28T04:10:46.601Z,98390.13
2019-04-28T04:13:23.636Z,98396.44
2019-04-28T04:16:03.605Z,98391.25
2019-04-28T04:18:47.064Z,98393.41
2019-04-28T04:21:21.443Z,98402.97
2019-04-28T04:23:54.262Z,98401.67
2019-04-28T04:26:25.846Z,98403.05
2019-04-28T04:28:57.393Z,98405.92
2019-04-28T04:31:31.512Z,98410.44
2019-04-28T04:34:03.270Z,98412.25
2019-04-28T04:36:35.217Z,98412.56
2019-04-28T04:39:10.835Z,98412.17
2019-04-28T04:41:43.801Z,98418.50
2019-04-28T04:44:15.564Z,98411.14
2019-04-28T04:46:47.157Z,98415.70
2019-04-28T04:49:21.522Z,98427.38
2019-04-28T04:51:52.126Z,98422.02
2019-04-28T04:54:23.728Z,98418.95
2019-04-28T04:56:55.329Z,98425.59
2019-04-28T04:59:30.060Z,98419.28
2019-04-28T05:02:26.555Z,98428.73
2019-04-28T05:05:03.652Z,98424.09
2019-04-28T05:07:35.247Z,98427.81
2019-04-28T05:10:07.413Z,98426.16
2019-04-28T05:12:40.382Z,98427.24
2019-04-28T05:15:12.166Z,98427.30
2019-04-28T05:17:43.740Z,98427.78
2019-04-28T05:20:15.307Z,98430.95
2019-04-28T05:23:04.578Z,98432.88
2019-04-28T05:25:42.090Z,98434.44
2019-04-28T05:28:13.696Z,98432.31
2019-04-28T05:30:45.265Z,98431.98
2019-04-28T05:33:33.767Z,98432.99
2019-04-28T05:36:03.127Z,98439.34
2019-04-28T05:38:34.939Z,98443.78
2019-04-28T05:41:06.694Z,98445.20
2019-04-28T05:43:40.304Z,98448.45
2019-04-28T05:46:11.624Z,98448.51
2019-04-28T05:48:51.188Z,98446.59
2019-04-28T05:51:27.009Z,98450.80
2019-04-28T05:54:17.507Z,98446.94
2019-04-28T05:57:12.254Z,98452.63
2019-04-28T05:59:50.587Z,98454.95
2019-04-28T06:02:26.553Z,98456.25
2019-04-28T06:04:59.970Z,98453.90
2019-04-28T06:07:37.295Z,98452.52
2019-04-28T06:10:10.504Z,98452.69
2019-04-28T06:12:42.834Z,98453.54
2019-04-28T06:15:14.535Z,98455.17
2019-04-28T06:17:46.187Z,98454.02
2019-04-28T06:20:17.753Z,98446.98
2019-04-28T06:22:49.344Z,98449.81
2019-04-28T06:25:20.926Z,98451.16
2019-04-28T06:27:52.531Z,98451.46
2019-04-28T06:30:24.204Z,98452.39
2019-04-28T06:33:07.194Z,98452.77
2019-04-28T06:35:29.120Z,98447.99
2019-04-28T06:38:00.687Z,98453.59
2019-04-28T06:40:32.273Z,98451.16
2019-04-28T06:43:03.845Z,98452.73
2019-04-28T06:45:35.446Z,98458.98
2019-04-28T06:48:07.061Z,98458.25
2019-04-28T06:50:38.671Z,98459.83
2019-04-28T06:53:10.607Z,98460.86
2019-04-28T06:55:44.955Z,98464.52
2019-04-28T06:58:16.563Z,98468.41
2019-04-28T07:00:48.197Z,98467.53
2019-04-28T07:03:23.208Z,98465.05
2019-04-28T07:05:53.097Z,98473.63
2019-04-28T07:08:24.676Z,98469.45
2019-04-28T07:10:56.271Z,98470.26
2019-04-28T07:13:27.814Z,98461.22
2019-04-28T07:15:59.405Z,98461.11
2019-04-28T07:18:31.041Z,98466.12
2019-04-28T07:21:10.949Z,98468.03
2019-04-28T07:23:42.684Z,98468.73
2019-04-28T07:26:14.304Z,98466.24
2019-04-28T07:28:45.905Z,98459.78
2019-04-28T07:31:18.457Z,98461.08
2019-04-28T07:33:50.062Z,98459.33
2019-04-28T07:36:21.713Z,98456.31
2019-04-28T07:38:53.291Z,98458.38
2019-04-28T07:41:24.952Z,98463.19
2019-04-28T07:43:56.538Z,98464.31
2019-04-28T07:46:28.172Z,98464.81
2019-04-28T07:48:59.764Z,98459.76
2019-04-28T07:52:00.224Z,98463.00
2019-04-28T07:54:31.803Z,98463.34
2019-04-28T07:57:03.422Z,98454.46
2019-04-28T07:59:35.049Z,98455.96
2019-04-28T08:02:07.257Z,98456.98
2019-04-28T08:04:38.829Z,98455.27
2019-04-28T08:07:10.479Z,98467.13
2019-04-28T08:09:42.036Z,98464.52
2019-04-28T08:12:13.665Z,98454.84
2019-04-28T08:14:45.307Z,98458.66
2019-04-28T08:17:19.403Z,98458.11
2019-04-28T08:19:51.159Z,98465.59
2019-04-28T08:22:22.759Z,98470.07
2019-04-28T08:24:54.382Z,98461.68
2019-04-28T08:27:26.014Z,98459.09
2019-04-28T08:29:58.720Z,98455.81
2019-04-28T08:32:48.979Z,98455.39
2019-04-28T08:35:20.601Z,98452.91
2019-04-28T08:37:52.198Z,98465.15
2019-04-28T08:40:23.777Z,98451.56
2019-04-28T08:42:55.464Z,98455.16
2019-04-28T08:45:27.069Z,98451.95
2019-04-28T08:47:58.656Z,98447.60
2019-04-28T08:50:30.235Z,98450.78
2019-04-28T08:53:01.852Z,98458.89
2019-04-28T08:55:33.521Z,98455.16
2019-04-28T08:58:05.124Z,98449.70
2019-04-28T09:00:36.716Z,98450.50
2019-04-28T09:03:08.383Z,98451.45
2019-04-28T09:05:41.023Z,98452.38
2019-04-28T09:08:12.616Z,98450.84
2019-04-28T09:10:44.235Z,98452.33
2019-04-28T09:13:15.839Z,98447.25
2019-04-28T09:15:47.445Z,98451.29
2019-04-28T09:18:19.051Z,98448.88
2019-04-28T09:20:50.694Z,98447.07
2019-04-28T09:23:22.293Z,98449.66
2019-04-28T09:25:53.901Z,98446.11
2019-04-28T09:28:25.544Z,98447.98
2019-04-28T09:30:57.180Z,98456.24
2019-04-28T09:33:29.078Z,98453.87
2019-04-28T09:36:01.844Z,98448.72
2019-04-28T09:38:33.462Z,98450.34
2019-04-28T09:41:05.059Z,98442.75
2019-04-28T09:43:55.928Z,98445.76
2019-04-28T09:46:32.842Z,98452.57
2019-04-28T09:49:04.456Z,98449.00
2019-04-28T09:51:36.141Z,98442.67
2019-04-28T09:54:07.754Z,98441.89
2019-04-28T09:56:39.396Z,98442.18
2019-04-28T09:59:11.048Z,98446.17
2019-04-28T10:01:42.664Z,98441.03
2019-04-28T10:04:14.236Z,98440.66
2019-04-28T10:06:45.852Z,98434.12
2019-04-28T10:09:17.412Z,98435.59
2019-04-28T10:11:49.060Z,98442.91
2019-04-28T10:14:20.661Z,98449.81
2019-04-28T10:16:52.288Z,98453.61
2019-04-28T10:19:23.871Z,98458.45
2019-04-28T10:21:55.573Z,98456.03
2019-04-28T10:24:27.455Z,98455.63
2019-04-28T10:26:59.024Z,98452.28
2019-04-28T10:29:32.937Z,98456.34
2019-04-28T10:32:03.979Z,98444.81
2019-04-28T10:34:35.627Z,98451.20
2019-04-28T10:37:07.582Z,98445.23
2019-04-28T10:39:48.633Z,98443.32
2019-04-28T10:42:20.266Z,98439.81
2019-04-28T10:44:51.905Z,98442.92
2019-04-28T10:47:23.578Z,98435.20
2019-04-28T10:49:55.393Z,98433.52
2019-04-28T10:52:27.033Z,98432.38
2019-04-28T10:54:58.623Z,98429.09
2019-04-28T10:57:30.256Z,98428.34
2019-04-28T11:00:02.042Z,98420.81
2019-04-28T11:02:33.676Z,98417.27
2019-04-28T11:05:19.164Z,98415.19
2019-04-28T11:07:50.987Z,98421.41
2019-04-28T11:10:22.614Z,98419.54
2019-04-28T11:12:54.181Z,98416.50
2019-04-28T11:15:34.720Z,98416.48
2019-04-28T11:18:09.437Z,98419.45
2019-04-28T11:20:41.040Z,98407.98
2019-04-28T11:23:12.650Z,98412.84
2019-04-28T11:25:44.285Z,98409.92
2019-04-28T11:28:15.944Z,98409.47
2019-04-28T11:30:47.601Z,98405.91
2019-04-28T11:33:42.122Z,98408.54
2019-04-28T11:36:15.185Z,98405.74
2019-04-28T11:38:46.846Z,98406.84
2019-04-28T11:41:18.449Z,98406.05
2019-04-28T11:43:50.290Z,98410.19
2019-04-28T11:46:23.319Z,98407.08
2019-04-28T11:48:54.917Z,98416.17
2019-04-28T11:51:26.534Z,98402.76
2019-04-28T11:53:58.146Z,98412.82
2019-04-28T11:56:40.846Z,98414.55
2019-04-28T11:59:03.144Z,98409.31
2019-04-28T12:01:34.789Z,98412.33
2019-04-28T12:04:08.036Z,98412.02
2019-04-28T12:06:39.675Z,98413.28
2019-04-28T12:09:29.014Z,98411.96
2019-04-28T12:12:01.525Z,98412.34
2019-04-28T12:14:42.603Z,98421.00
2019-04-28T12:17:34.918Z,98421.08
2019-04-28T12:20:14.956Z,98422.43
2019-04-28T12:22:46.606Z,98434.48
2019-04-28T12:25:18.358Z,98429.48
2019-04-28T12:27:49.955Z,98423.75
2019-04-28T12:30:21.585Z,98425.20
2019-04-28T12:32:54.339Z,98423.39
2019-04-28T12:35:25.964Z,98418.83
2019-04-28T12:37:57.572Z,98417.11
2019-04-28T12:40:29.238Z,98419.36
2019-04-28T12:43:00.912Z,98416.77
2019-04-28T12:45:35.429Z,98413.66
2019-04-28T12:48:07.210Z,98416.85
2019-04-28T12:50:44.858Z,98416.14
2019-04-28T12:53:16.453Z,98408.26
2019-04-28T12:55:49.112Z,98409.19
2019-04-28T12:58:20.729Z,98407.90
2019-04-28T13:01:23.046Z,98403.92
2019-04-28T13:04:21.030Z,98402.52
2019-04-28T13:07:02.865Z,98401.79
2019-04-28T13:09:34.626Z,98404.45
2019-04-28T13:12:06.682Z,98405.27
2019-04-28T13:14:38.327Z,98402.77
2019-04-28T13:17:09.979Z,98402.31
2019-04-28T13:19:41.591Z,98394.05
2019-04-28T13:22:14.467Z,98403.13
2019-04-28T13:24:46.118Z,98388.70
2019-04-28T13:27:17.712Z,98388.20
2019-04-28T13:29:49.311Z,98388.22
2019-04-28T13:32:20.936Z,98386.33
2019-04-28T13:34:52.713Z,98382.88
2019-04-28T13:37:24.346Z,98378.80
2019-04-28T13:40:00.336Z,98366.77
2019-04-28T13:42:31.901Z,98375.70
2019-04-28T13:45:07.096Z,98369.85
2019-04-28T13:47:39.414Z,98362.00
2019-04-28T13:50:26.865Z,98363.28
2019-04-28T13:52:58.454Z,98354.80
2019-04-28T13:55:48.048Z,98352.27
2019-04-28T13:58:21.574Z,98355.84
2019-04-28T14:01:12.035Z,98357.23
2019-04-28T14:04:02.588Z,98352.34
2019-04-28T14:06:37.908Z,98356.17
2019-04-28T14:09:18.404Z,98349.97
2019-04-28T14:11:51.823Z,98345.78
2019-04-28T14:14:23.439Z,98340.00
2019-04-28T14:16:55.088Z,98338.75
2019-04-28T14:19:26.781Z,98337.17
2019-04-28T14:21:58.406Z,98337.76
2019-04-28T14:24:30.256Z,98335.46
2019-04-28T14:27:01.971Z,98337.41
2019-04-28T14:29:33.611Z,98336.33
2019-04-28T14:32:05.279Z,98331.50
2019-04-28T14:34:36.902Z,98328.26
2019-04-28T14:37:08.608Z,98329.92
2019-04-28T14:39:40.232Z,98336.20
2019-04-28T14:42:11.841Z,98334.14
2019-04-28T14:44:43.616Z,98338.69
2019-04-28T14:47:15.238Z,98336.11
2019-04-28T14:49:46.864Z,98330.91
2019-04-28T14:52:18.506Z,98335.61
2019-04-28T14:54:50.240Z,98333.38
2019-04-28T14:57:21.929Z,98332.29
2019-04-28T14:59:53.531Z,98328.03
2019-04-28T15:02:35.466Z,98334.41
2019-04-28T15:05:28.427Z,98333.27
2019-04-28T15:08:25.348Z,98334.53
2019-04-28T15:11:04.979Z,98334.09
2019-04-28T15:13:37.722Z,98330.64
2019-04-28T15:16:09.361Z,98323.81
2019-04-28T15:18:40.983Z,98325.56
2019-04-28T15:21:12.593Z,98330.82
2019-04-28T15:23:45.435Z,98325.87
2019-04-28T15:26:17.137Z,98330.28
2019-04-28T15:28:48.791Z,98333.57
2019-04-28T15:31:20.407Z,98330.09
2019-04-28T15:33:52.309Z,98329.68
2019-04-28T15:36:25.447Z,98336.52
2019-04-28T15:38:57.076Z,98335.56
2019-04-28T15:41:28.699Z,98335.23
2019-04-28T15:44:00.305Z,98330.08
2019-04-28T15:46:33.730Z,98323.33
2019-04-28T15:49:05.544Z,98318.85
2019-04-28T15:51:37.176Z,98321.53
2019-04-28T15:54:08.843Z,98325.67
2019-04-28T15:56:48.094Z,98322.73
2019-04-28T15:59:21.693Z,98324.01
2019-04-28T16:01:53.471Z,98329.41
2019-04-28T16:04:25.393Z,98328.31
2019-04-28T16:06:57.115Z,98336.67
2019-04-28T16:09:29.019Z,98341.31
2019-04-28T16:12:00.640Z,98341.10
2019-04-28T16:14:32.316Z,98339.20
2019-04-28T16:17:03.904Z,98338.01
2019-04-28T16:19:35.521Z,98351.86
2019-04-28T16:22:07.347Z,98346.39
2019-04-28T16:24:38.976Z,98344.25
2019-04-28T16:27:10.680Z,98342.09
2019-04-28T16:29:42.347Z,98339.81
2019-04-28T16:32:14.108Z,98344.55
2019-04-28T16:34:45.710Z,98340.34
2019-04-28T16:37:17.337Z,98348.78
2019-04-28T16:39:50.566Z,98352.59
2019-04-28T16:42:27.929Z,98345.54
2019-04-28T16:45:01.804Z,98344.60
2019-04-28T16:47:33.416Z,98350.67
2019-04-28T16:50:05.562Z,98348.29
2019-04-28T16:52:37.260Z,98339.59
2019-04-28T16:55:19.763Z,98348.66
2019-04-28T16:58:09.259Z,98344.72
2019-04-28T17:01:08.854Z,98346.86
2019-04-28T17:03:40.561Z,98341.19
2019-04-28T17:06:12.167Z,98346.44
2019-04-28T17:08:44.712Z,98339.66
2019-04-28T17:11:16.409Z,98336.24
2019-04-28T17:13:48.065Z,98340.42
2019-04-28T17:16:19.686Z,98343.98
2019-04-28T17:18:51.388Z,98351.98
2019-04-28T17:21:23.078Z,98353.90
2019-04-28T17:23:54.783Z,98353.89
2019-04-28T17:26:27.392Z,98354.36
2019-04-28T17:28:59.035Z,98354.94
2019-04-28T17:31:30.659Z,98359.59
2019-04-28T17:34:02.357Z,98360.77
2019-04-28T17:36:34.028Z,98364.34
2019-04-28T17:39:13.818Z,98367.91
2019-04-28T17:41:46.561Z,98371.83
2019-04-28T17:44:18.365Z,98370.17
2019-04-28T17:46:50.035Z,98375.40
2019-04-28T17:49:29.812Z,98375.05
2019-04-28T17:52:01.901Z,98378.15
2019-04-28T17:54:33.665Z,98386.70
2019-04-28T17:57:06.152Z,98393.75
2019-04-28T17:59:37.933Z,98392.80
2019-04-28T18:02:27.085Z,98392.22
2019-04-28T18:05:17.690Z,98393.64
2019-04-28T18:07:52.219Z,98395.87
2019-04-28T18:10:27.315Z,98394.67
2019-04-28T18:13:01.000Z,98397.41
2019-04-28T18:15:46.462Z,98400.94
2019-04-28T18:18:39.954Z,98409.48
2019-04-28T18:21:11.584Z,98402.22
2019-04-28T18:23:43.397Z,98405.78
2019-04-28T18:26:15.094Z,98415.92
2019-04-28T18:28:46.837Z,98421.23
2019-04-28T18:31:44.461Z,98420.03
2019-04-28T18:34:32.671Z,98421.56
2019-04-28T18:37:17.470Z,98427.03
2019-04-28T18:40:26.602Z,98432.70
2019-04-28T18:43:11.370Z,98428.47
2019-04-28T18:45:43.045Z,98434.63
2019-04-28T18:48:14.828Z,98443.67
2019-04-28T18:50:46.470Z,98443.70
2019-04-28T18:53:18.120Z,98450.31
2019-04-28T18:55:49.733Z,98453.25
2019-04-28T18:58:21.380Z,98455.73
2019-04-28T19:01:01.848Z,98461.62
2019-04-28T19:03:34.509Z,98459.77
2019-04-28T19:06:06.176Z,98469.84
2019-04-28T19:08:49.277Z,98468.50
2019-04-28T19:11:28.057Z,98475.09
2019-04-28T19:14:04.426Z,98474.52
2019-04-28T19:16:57.788Z,98474.15
2019-04-28T19:19:30.882Z,98476.56
2019-04-28T19:22:04.190Z,98474.45
2019-04-28T19:24:35.901Z,98474.39
2019-04-28T19:27:07.556Z,98478.99
2019-04-28T19:29:39.306Z,98475.96
2019-04-28T19:32:10.945Z,98485.13
2019-04-28T19:34:42.562Z,98485.12
2019-04-28T19:37:14.436Z,98488.89
2019-04-28T19:39:46.071Z,98488.77
2019-04-28T19:42:17.756Z,98505.50
2019-04-28T19:44:49.490Z,98509.17
2019-04-28T19:47:22.434Z,98517.96
2019-04-28T19:49:55.782Z,98515.00
2019-04-28T19:52:28.663Z,98528.88
2019-04-28T19:55:23.392Z,98538.45
2019-04-28T19:58:02.489Z,98534.47
2019-04-28T20:00:43.357Z,98536.88
2019-04-28T20:03:16.642Z,98544.33
2019-04-28T20:05:48.306Z,98549.65
2019-04-28T20:08:19.962Z,98548.89
2019-04-28T20:10:51.625Z,98556.72
2019-04-28T20:13:23.273Z,98559.42
2019-04-28T20:15:54.871Z,98560.06
2019-04-28T20:18:29.372Z,98560.06
2019-04-28T20:20:59.980Z,98559.58
2019-04-28T20:23:31.765Z,98561.36
2019-04-28T20:26:03.471Z,98562.19
2019-04-28T20:28:35.246Z,98561.11
2019-04-28T20:31:06.863Z,98562.67
2019-04-28T20:33:38.573Z,98562.51
2019-04-28T20:36:16.680Z,98561.39
2019-04-28T20:38:50.383Z,98558.30
2019-04-28T20:41:25.143Z,98566.50
2019-04-28T20:43:59.000Z,98567.55
2019-04-28T20:46:30.627Z,98575.47
2019-04-28T20:49:02.548Z,98572.77
2019-04-28T20:51:34.252Z,98576.39
2019-04-28T20:54:05.869Z,98577.59
2019-04-28T20:56:37.475Z,98581.80
2019-04-28T20:59:09.203Z,98582.36
2019-04-28T21:01:40.930Z,98592.41
2019-04-28T21:04:12.840Z,98588.20
2019-04-28T21:06:45.582Z,98587.66
2019-04-28T21:09:17.218Z,98585.33
2019-04-28T21:11:48.832Z,98583.00
2019-04-28T21:14:20.796Z,98588.88
2019-04-28T21:16:52.768Z,98589.98
2019-04-28T21:19:24.644Z,98583.92
2019-04-28T21:21:56.179Z,98584.20
2019-04-28T21:24:27.828Z,98590.23
2019-04-28T21:26:59.451Z,98587.28
2019-04-28T21:29:31.088Z,98588.17
2019-04-28T21:32:02.674Z,98589.13
2019-04-28T21:34:34.258Z,98592.35
2019-04-28T21:37:05.932Z,98587.61
2019-04-28T21:39:37.610Z,98594.49
2019-04-28T21:42:12.764Z,98589.42
2019-04-28T21:45:03.771Z,98592.31
2019-04-28T21:47:36.315Z,98595.09
2019-04-28T21:50:08.170Z,98594.31
2019-04-28T21:52:39.892Z,98600.33
2019-04-28T21:55:11.613Z,98600.38
2019-04-28T21:57:43.239Z,98597.38
2019-04-28T22:00:17.901Z,98598.59
2019-04-28T22:03:07.409Z,98600.89
2019-04-28T22:05:39.961Z,98604.95
2019-04-28T22:08:11.669Z,98606.73
2019-04-28T22:10:43.216Z,98602.51
2019-04-28T22:13:14.840Z,98602.53
2019-04-28T22:15:46.436Z,98599.94
2019-04-28T22:18:18.002Z,98601.73
2019-04-28T22:20:49.605Z,98602.86
2019-04-28T22:23:27.208Z,98604.72
2019-04-28T22:25:58.859Z,98603.86
2019-04-28T22:28:30.412Z,98606.70
2019-04-28T22:31:01.995Z,98600.01
2019-04-28T22:33:35.161Z,98597.56
2019-04-28T22:36:06.858Z,98604.06
2019-04-28T22:38:38.463Z,98609.19
2019-04-28T22:41:10.082Z,98610.56
2019-04-28T22:43:41.722Z,98606.08
2019-04-28T22:46:13.309Z,98619.91
2019-04-28T22:48:44.983Z,98619.55
2019-04-28T22:51:16.691Z,98614.63
2019-04-28T22:53:48.335Z,98619.23
2019-04-28T22:56:41.725Z,98625.26
2019-04-28T22:59:32.256Z,98625.66
2019-04-28T23:02:10.928Z,98628.95
2019-04-28T23:05:07.490Z,98626.59
2019-04-28T23:07:39.050Z,98625.49
2019-04-28T23:10:11.181Z,98628.95
2019-04-28T23:12:42.742Z,98620.92
2019-04-28T23:15:14.298Z,98624.14
2019-04-28T23:17:46.191Z,98627.44
2019-04-28T23:20:18.050Z,98628.89
2019-04-28T23:22:50.822Z,98627.44
2019-04-28T23:25:22.388Z,98628.92
2019-04-28T23:27:54.026Z,98635.36
2019-04-28T23:30:42.145Z,98635.73
2019-04-28T23:33:14.711Z,98630.16
2019-04-28T23:35:46.311Z,98635.42
2019-04-28T23:38:17.964Z,98635.17
2019-04-28T23:41:09.879Z,98636.55
2019-04-28T23:43:42.668Z,98632.88
2019-04-28T23:46:14.303Z,98637.09
2019-04-28T23:48:45.914Z,98634.97
2019-04-28T23:51:29.663Z,98636.41
2019-04-28T23:54:03.458Z,98634.50
2019-04-28T23:56:34.993Z,98643.34
2019-04-28T23:59:06.609Z,98641.82
